sensor_id;sensor_type;location;lat;lon;timestamp;P1;durP1;ratioP1;P2;durP2;ratioP2
19084;SDS011;9675;51.538;6.728;2023-04-25T00:00:30;5.10;;;1.00;;
19084;SDS011;9675;51.538;6.728;2023-04-25T00:02:57;1.70;;;0.97;;
19084;SDS011;9675;51.538;6.728;2023-04-25T00:05:25;4.80;;;1.40;;
19084;SDS011;9675;51.538;6.728;2023-04-25T00:07:52;2.90;;;1.20;;
19084;SDS011;9675;51.538;6.728;2023-04-25T00:10:19;3.37;;;1.20;;
19084;SDS011;9675;51.538;6.728;2023-04-25T00:12:47;2.07;;;1.47;;
19084;SDS011;9675;51.538;6.728;2023-04-25T00:15:15;2.97;;;1.63;;
19084;SDS011;9675;51.538;6.728;2023-04-25T00:17:42;3.37;;;1.43;;
19084;SDS011;9675;51.538;6.728;2023-04-25T00:20:11;5.17;;;1.40;;
19084;SDS011;9675;51.538;6.728;2023-04-25T00:22:39;2.57;;;1.37;;
19084;SDS011;9675;51.538;6.728;2023-04-25T00:25:06;4.60;;;2.03;;
19084;SDS011;9675;51.538;6.728;2023-04-25T00:27:34;5.83;;;1.77;;
19084;SDS011;9675;51.538;6.728;2023-04-25T00:30:01;8.83;;;1.30;;
19084;SDS011;9675;51.538;6.728;2023-04-25T00:32:30;9.03;;;1.57;;
19084;SDS011;9675;51.538;6.728;2023-04-25T00:34:57;4.17;;;1.90;;
19084;SDS011;9675;51.538;6.728;2023-04-25T00:37:24;1.80;;;1.00;;
19084;SDS011;9675;51.538;6.728;2023-04-25T00:39:51;5.23;;;1.60;;
19084;SDS011;9675;51.538;6.728;2023-04-25T00:42:20;3.10;;;1.23;;
19084;SDS011;9675;51.538;6.728;2023-04-25T00:44:48;5.27;;;1.93;;
19084;SDS011;9675;51.538;6.728;2023-04-25T00:47:16;5.00;;;1.77;;
19084;SDS011;9675;51.538;6.728;2023-04-25T00:49:45;3.20;;;1.33;;
19084;SDS011;9675;51.538;6.728;2023-04-25T00:52:12;2.93;;;1.30;;
19084;SDS011;9675;51.538;6.728;2023-04-25T00:54:39;7.67;;;1.53;;
19084;SDS011;9675;51.538;6.728;2023-04-25T00:57:06;6.40;;;1.80;;
19084;SDS011;9675;51.538;6.728;2023-04-25T00:59:34;1.93;;;1.03;;
19084;SDS011;9675;51.538;6.728;2023-04-25T01:02:04;7.33;;;1.50;;
19084;SDS011;9675;51.538;6.728;2023-04-25T01:04:32;3.33;;;1.50;;
19084;SDS011;9675;51.538;6.728;2023-04-25T01:07:00;6.53;;;1.40;;
19084;SDS011;9675;51.538;6.728;2023-04-25T01:09:29;6.40;;;1.67;;
19084;SDS011;9675;51.538;6.728;2023-04-25T01:11:57;3.60;;;0.90;;
19084;SDS011;9675;51.538;6.728;2023-04-25T01:14:25;3.10;;;1.40;;
19084;SDS011;9675;51.538;6.728;2023-04-25T01:16:52;3.40;;;1.60;;
19084;SDS011;9675;51.538;6.728;2023-04-25T01:19:19;0.90;;;0.67;;
19084;SDS011;9675;51.538;6.728;2023-04-25T01:21:48;2.10;;;1.23;;
19084;SDS011;9675;51.538;6.728;2023-04-25T01:24:18;4.23;;;1.57;;
19084;SDS011;9675;51.538;6.728;2023-04-25T01:26:45;4.83;;;1.13;;
19084;SDS011;9675;51.538;6.728;2023-04-25T01:29:15;5.53;;;1.53;;
19084;SDS011;9675;51.538;6.728;2023-04-25T01:31:43;2.23;;;1.20;;
19084;SDS011;9675;51.538;6.728;2023-04-25T01:34:11;4.27;;;1.40;;
19084;SDS011;9675;51.538;6.728;2023-04-25T01:36:39;7.00;;;2.10;;
19084;SDS011;9675;51.538;6.728;2023-04-25T01:39:07;5.00;;;1.40;;
19084;SDS011;9675;51.538;6.728;2023-04-25T01:41:35;6.77;;;1.53;;
19084;SDS011;9675;51.538;6.728;2023-04-25T01:44:03;2.23;;;1.37;;
19084;SDS011;9675;51.538;6.728;2023-04-25T01:46:30;4.97;;;1.50;;
19084;SDS011;9675;51.538;6.728;2023-04-25T01:48:59;5.60;;;1.20;;
19084;SDS011;9675;51.538;6.728;2023-04-25T01:51:26;4.43;;;1.70;;
19084;SDS011;9675;51.538;6.728;2023-04-25T01:53:54;3.33;;;1.30;;
19084;SDS011;9675;51.538;6.728;2023-04-25T01:56:24;5.20;;;1.90;;
19084;SDS011;9675;51.538;6.728;2023-04-25T01:58:51;4.70;;;2.03;;
19084;SDS011;9675;51.538;6.728;2023-04-25T02:01:18;3.17;;;1.30;;
19084;SDS011;9675;51.538;6.728;2023-04-25T02:03:45;4.50;;;1.87;;
19084;SDS011;9675;51.538;6.728;2023-04-25T02:06:12;5.23;;;1.97;;
19084;SDS011;9675;51.538;6.728;2023-04-25T02:08:39;3.53;;;1.33;;
19084;SDS011;9675;51.538;6.728;2023-04-25T02:11:06;7.07;;;1.10;;
19084;SDS011;9675;51.538;6.728;2023-04-25T02:13:34;6.67;;;1.80;;
19084;SDS011;9675;51.538;6.728;2023-04-25T02:16:02;4.87;;;1.57;;
19084;SDS011;9675;51.538;6.728;2023-04-25T02:18:41;2.87;;;1.47;;
19084;SDS011;9675;51.538;6.728;2023-04-25T02:21:10;1.90;;;1.27;;
19084;SDS011;9675;51.538;6.728;2023-04-25T02:23:37;5.97;;;1.40;;
19084;SDS011;9675;51.538;6.728;2023-04-25T02:26:04;1.50;;;0.93;;
19084;SDS011;9675;51.538;6.728;2023-04-25T02:28:31;1.87;;;1.13;;
19084;SDS011;9675;51.538;6.728;2023-04-25T02:31:00;5.23;;;1.70;;
19084;SDS011;9675;51.538;6.728;2023-04-25T02:33:27;2.03;;;1.37;;
19084;SDS011;9675;51.538;6.728;2023-04-25T02:35:54;1.57;;;1.03;;
19084;SDS011;9675;51.538;6.728;2023-04-25T02:38:21;4.63;;;1.40;;
19084;SDS011;9675;51.538;6.728;2023-04-25T02:40:48;5.37;;;1.50;;
19084;SDS011;9675;51.538;6.728;2023-04-25T02:43:15;4.37;;;1.47;;
19084;SDS011;9675;51.538;6.728;2023-04-25T02:45:42;4.40;;;1.20;;
19084;SDS011;9675;51.538;6.728;2023-04-25T02:48:11;5.43;;;1.57;;
19084;SDS011;9675;51.538;6.728;2023-04-25T02:50:38;6.87;;;1.73;;
19084;SDS011;9675;51.538;6.728;2023-04-25T02:53:05;7.73;;;1.93;;
19084;SDS011;9675;51.538;6.728;2023-04-25T02:55:32;3.13;;;1.30;;
19084;SDS011;9675;51.538;6.728;2023-04-25T02:57:59;1.00;;;0.83;;
19084;SDS011;9675;51.538;6.728;2023-04-25T03:00:26;6.13;;;2.10;;
19084;SDS011;9675;51.538;6.728;2023-04-25T03:02:53;1.77;;;1.07;;
19084;SDS011;9675;51.538;6.728;2023-04-25T03:05:21;2.90;;;1.03;;
19084;SDS011;9675;51.538;6.728;2023-04-25T03:07:48;3.13;;;1.27;;
19084;SDS011;9675;51.538;6.728;2023-04-25T03:10:15;3.50;;;1.40;;
19084;SDS011;9675;51.538;6.728;2023-04-25T03:12:42;1.47;;;1.00;;
19084;SDS011;9675;51.538;6.728;2023-04-25T03:15:10;2.77;;;1.10;;
19084;SDS011;9675;51.538;6.728;2023-04-25T03:17:37;1.90;;;1.40;;
19084;SDS011;9675;51.538;6.728;2023-04-25T03:20:04;6.67;;;1.10;;
19084;SDS011;9675;51.538;6.728;2023-04-25T03:22:34;4.20;;;1.60;;
19084;SDS011;9675;51.538;6.728;2023-04-25T03:25:01;5.47;;;1.30;;
19084;SDS011;9675;51.538;6.728;2023-04-25T03:27:29;2.40;;;1.20;;
19084;SDS011;9675;51.538;6.728;2023-04-25T03:29:56;1.37;;;0.87;;
19084;SDS011;9675;51.538;6.728;2023-04-25T03:32:23;5.60;;;1.33;;
19084;SDS011;9675;51.538;6.728;2023-04-25T03:34:50;3.33;;;1.00;;
19084;SDS011;9675;51.538;6.728;2023-04-25T03:37:17;3.47;;;1.67;;
19084;SDS011;9675;51.538;6.728;2023-04-25T03:39:46;2.07;;;0.83;;
19084;SDS011;9675;51.538;6.728;2023-04-25T03:42:13;4.87;;;1.53;;
19084;SDS011;9675;51.538;6.728;2023-04-25T03:44:40;3.43;;;1.67;;
19084;SDS011;9675;51.538;6.728;2023-04-25T03:47:07;2.50;;;1.50;;
19084;SDS011;9675;51.538;6.728;2023-04-25T03:49:34;2.23;;;1.53;;
19084;SDS011;9675;51.538;6.728;2023-04-25T03:52:02;3.90;;;1.37;;
19084;SDS011;9675;51.538;6.728;2023-04-25T03:54:29;5.90;;;1.43;;
19084;SDS011;9675;51.538;6.728;2023-04-25T03:56:58;3.67;;;1.13;;
19084;SDS011;9675;51.538;6.728;2023-04-25T03:59:25;3.43;;;0.90;;
19084;SDS011;9675;51.538;6.728;2023-04-25T04:01:52;6.00;;;1.40;;
19084;SDS011;9675;51.538;6.728;2023-04-25T04:04:19;4.03;;;1.97;;
19084;SDS011;9675;51.538;6.728;2023-04-25T04:06:46;2.63;;;1.57;;
19084;SDS011;9675;51.538;6.728;2023-04-25T04:09:13;1.20;;;0.83;;
19084;SDS011;9675;51.538;6.728;2023-04-25T04:11:40;5.20;;;1.37;;
19084;SDS011;9675;51.538;6.728;2023-04-25T04:14:09;6.20;;;1.63;;
19084;SDS011;9675;51.538;6.728;2023-04-25T04:16:36;4.87;;;1.10;;
19084;SDS011;9675;51.538;6.728;2023-04-25T04:19:03;2.30;;;1.17;;
19084;SDS011;9675;51.538;6.728;2023-04-25T04:21:30;7.07;;;1.83;;
19084;SDS011;9675;51.538;6.728;2023-04-25T04:23:58;3.33;;;1.50;;
19084;SDS011;9675;51.538;6.728;2023-04-25T04:26:25;7.77;;;1.97;;
19084;SDS011;9675;51.538;6.728;2023-04-25T04:28:52;8.13;;;1.93;;
19084;SDS011;9675;51.538;6.728;2023-04-25T04:31:22;5.80;;;1.70;;
19084;SDS011;9675;51.538;6.728;2023-04-25T04:33:49;3.33;;;1.20;;
19084;SDS011;9675;51.538;6.728;2023-04-25T04:36:16;7.47;;;1.47;;
19084;SDS011;9675;51.538;6.728;2023-04-25T04:38:45;5.60;;;1.27;;
19084;SDS011;9675;51.538;6.728;2023-04-25T04:41:12;5.43;;;1.70;;
19084;SDS011;9675;51.538;6.728;2023-04-25T04:43:39;3.50;;;1.43;;
19084;SDS011;9675;51.538;6.728;2023-04-25T04:46:06;5.03;;;1.93;;
19084;SDS011;9675;51.538;6.728;2023-04-25T04:48:36;7.37;;;1.57;;
19084;SDS011;9675;51.538;6.728;2023-04-25T04:51:05;4.00;;;1.57;;
19084;SDS011;9675;51.538;6.728;2023-04-25T04:53:32;2.77;;;1.40;;
19084;SDS011;9675;51.538;6.728;2023-04-25T04:55:59;2.47;;;1.30;;
19084;SDS011;9675;51.538;6.728;2023-04-25T04:58:26;4.23;;;1.13;;
19084;SDS011;9675;51.538;6.728;2023-04-25T05:00:54;7.33;;;1.87;;
19084;SDS011;9675;51.538;6.728;2023-04-25T05:03:23;5.63;;;2.10;;
19084;SDS011;9675;51.538;6.728;2023-04-25T05:05:51;4.47;;;1.63;;
19084;SDS011;9675;51.538;6.728;2023-04-25T05:08:18;4.83;;;1.40;;
19084;SDS011;9675;51.538;6.728;2023-04-25T05:10:45;5.90;;;1.77;;
19084;SDS011;9675;51.538;6.728;2023-04-25T05:13:12;5.13;;;1.33;;
19084;SDS011;9675;51.538;6.728;2023-04-25T05:15:40;3.90;;;2.13;;
19084;SDS011;9675;51.538;6.728;2023-04-25T05:18:06;3.83;;;1.47;;
19084;SDS011;9675;51.538;6.728;2023-04-25T05:20:33;8.37;;;1.50;;
19084;SDS011;9675;51.538;6.728;2023-04-25T05:23:02;5.40;;;1.47;;
19084;SDS011;9675;51.538;6.728;2023-04-25T05:25:29;5.80;;;1.67;;
19084;SDS011;9675;51.538;6.728;2023-04-25T05:27:56;3.80;;;1.23;;
19084;SDS011;9675;51.538;6.728;2023-04-25T05:30:24;6.07;;;1.80;;
19084;SDS011;9675;51.538;6.728;2023-04-25T05:32:51;1.30;;;0.57;;
19084;SDS011;9675;51.538;6.728;2023-04-25T05:35:18;3.27;;;1.40;;
19084;SDS011;9675;51.538;6.728;2023-04-25T05:37:45;4.10;;;1.20;;
19084;SDS011;9675;51.538;6.728;2023-04-25T05:40:13;3.93;;;1.93;;
19084;SDS011;9675;51.538;6.728;2023-04-25T05:42:40;5.17;;;1.53;;
19084;SDS011;9675;51.538;6.728;2023-04-25T05:45:07;8.43;;;0.97;;
19084;SDS011;9675;51.538;6.728;2023-04-25T05:47:35;6.03;;;1.37;;
19084;SDS011;9675;51.538;6.728;2023-04-25T05:50:02;4.53;;;1.47;;
19084;SDS011;9675;51.538;6.728;2023-04-25T05:52:30;3.67;;;1.53;;
19084;SDS011;9675;51.538;6.728;2023-04-25T05:54:57;5.27;;;1.27;;
19084;SDS011;9675;51.538;6.728;2023-04-25T05:57:26;2.30;;;1.13;;
19084;SDS011;9675;51.538;6.728;2023-04-25T05:59:53;1.63;;;0.70;;
19084;SDS011;9675;51.538;6.728;2023-04-25T06:02:20;2.47;;;1.10;;
19084;SDS011;9675;51.538;6.728;2023-04-25T06:04:48;0.10;;;0.10;;
19084;SDS011;9675;51.538;6.728;2023-04-25T06:07:16;2.00;;;0.90;;
19084;SDS011;9675;51.538;6.728;2023-04-25T06:09:44;5.30;;;1.53;;
19084;SDS011;9675;51.538;6.728;2023-04-25T06:12:11;3.50;;;1.17;;
19084;SDS011;9675;51.538;6.728;2023-04-25T06:14:40;5.53;;;2.00;;
19084;SDS011;9675;51.538;6.728;2023-04-25T06:17:07;2.03;;;0.60;;
19084;SDS011;9675;51.538;6.728;2023-04-25T06:19:35;8.37;;;1.37;;
19084;SDS011;9675;51.538;6.728;2023-04-25T06:22:02;0.70;;;0.70;;
19084;SDS011;9675;51.538;6.728;2023-04-25T06:24:29;1.17;;;0.73;;
19084;SDS011;9675;51.538;6.728;2023-04-25T06:26:56;1.63;;;0.60;;
19084;SDS011;9675;51.538;6.728;2023-04-25T06:29:23;1.67;;;0.87;;
19084;SDS011;9675;51.538;6.728;2023-04-25T06:31:52;1.60;;;0.40;;
19084;SDS011;9675;51.538;6.728;2023-04-25T06:34:19;4.43;;;0.60;;
19084;SDS011;9675;51.538;6.728;2023-04-25T06:36:46;1.90;;;1.17;;
19084;SDS011;9675;51.538;6.728;2023-04-25T06:39:13;3.87;;;0.80;;
19084;SDS011;9675;51.538;6.728;2023-04-25T06:41:40;3.77;;;1.00;;
19084;SDS011;9675;51.538;6.728;2023-04-25T06:44:07;4.53;;;0.90;;
19084;SDS011;9675;51.538;6.728;2023-04-25T06:46:34;0.87;;;0.40;;
19084;SDS011;9675;51.538;6.728;2023-04-25T06:49:04;1.57;;;0.93;;
19084;SDS011;9675;51.538;6.728;2023-04-25T06:51:30;7.87;;;0.30;;
19084;SDS011;9675;51.538;6.728;2023-04-25T06:53:58;6.73;;;1.07;;
19084;SDS011;9675;51.538;6.728;2023-04-25T06:56:25;8.13;;;1.70;;
19084;SDS011;9675;51.538;6.728;2023-04-25T06:58:53;4.47;;;1.63;;
19084;SDS011;9675;51.538;6.728;2023-04-25T07:01:20;2.63;;;1.40;;
19084;SDS011;9675;51.538;6.728;2023-04-25T07:03:47;6.53;;;1.43;;
19084;SDS011;9675;51.538;6.728;2023-04-25T07:06:15;6.97;;;0.80;;
19084;SDS011;9675;51.538;6.728;2023-04-25T07:08:42;3.53;;;1.13;;
19084;SDS011;9675;51.538;6.728;2023-04-25T07:11:09;0.97;;;0.83;;
19084;SDS011;9675;51.538;6.728;2023-04-25T07:13:36;1.73;;;1.07;;
19084;SDS011;9675;51.538;6.728;2023-04-25T07:16:03;2.90;;;1.40;;
19084;SDS011;9675;51.538;6.728;2023-04-25T07:18:31;4.53;;;1.37;;
19084;SDS011;9675;51.538;6.728;2023-04-25T07:20:58;3.07;;;1.33;;
19084;SDS011;9675;51.538;6.728;2023-04-25T07:23:26;2.57;;;0.73;;
19084;SDS011;9675;51.538;6.728;2023-04-25T07:25:53;5.43;;;1.43;;
19084;SDS011;9675;51.538;6.728;2023-04-25T07:28:20;1.70;;;0.57;;
19084;SDS011;9675;51.538;6.728;2023-04-25T07:30:47;1.80;;;1.20;;
19084;SDS011;9675;51.538;6.728;2023-04-25T07:33:14;2.73;;;1.50;;
19084;SDS011;9675;51.538;6.728;2023-04-25T07:35:41;2.57;;;0.83;;
19084;SDS011;9675;51.538;6.728;2023-04-25T07:38:08;5.63;;;1.40;;
19084;SDS011;9675;51.538;6.728;2023-04-25T07:40:37;8.93;;;1.50;;
19084;SDS011;9675;51.538;6.728;2023-04-25T07:43:04;6.20;;;1.50;;
19084;SDS011;9675;51.538;6.728;2023-04-25T07:45:31;4.40;;;1.57;;
19084;SDS011;9675;51.538;6.728;2023-04-25T07:47:58;3.10;;;0.77;;
19084;SDS011;9675;51.538;6.728;2023-04-25T07:50:25;11.93;;;1.20;;
19084;SDS011;9675;51.538;6.728;2023-04-25T07:52:52;7.90;;;1.13;;
19084;SDS011;9675;51.538;6.728;2023-04-25T07:55:19;1.77;;;1.00;;
19084;SDS011;9675;51.538;6.728;2023-04-25T07:57:47;3.63;;;0.93;;
19084;SDS011;9675;51.538;6.728;2023-04-25T08:00:15;5.50;;;1.50;;
19084;SDS011;9675;51.538;6.728;2023-04-25T08:02:42;4.37;;;0.97;;
19084;SDS011;9675;51.538;6.728;2023-04-25T08:05:09;0.70;;;0.63;;
19084;SDS011;9675;51.538;6.728;2023-04-25T08:07:39;8.63;;;1.00;;
19084;SDS011;9675;51.538;6.728;2023-04-25T08:10:07;5.17;;;1.23;;
19084;SDS011;9675;51.538;6.728;2023-04-25T08:12:34;2.80;;;1.23;;
19084;SDS011;9675;51.538;6.728;2023-04-25T08:15:03;3.93;;;0.70;;
19084;SDS011;9675;51.538;6.728;2023-04-25T08:17:32;2.77;;;1.13;;
19084;SDS011;9675;51.538;6.728;2023-04-25T08:19:59;3.47;;;1.30;;
19084;SDS011;9675;51.538;6.728;2023-04-25T08:22:26;1.20;;;0.57;;
19084;SDS011;9675;51.538;6.728;2023-04-25T08:24:56;1.60;;;0.57;;
19084;SDS011;9675;51.538;6.728;2023-04-25T08:27:23;2.10;;;1.40;;
19084;SDS011;9675;51.538;6.728;2023-04-25T08:29:50;3.30;;;0.80;;
19084;SDS011;9675;51.538;6.728;2023-04-25T08:32:18;3.63;;;0.33;;
19084;SDS011;9675;51.538;6.728;2023-04-25T08:34:46;4.53;;;0.57;;
19084;SDS011;9675;51.538;6.728;2023-04-25T08:37:13;3.90;;;0.70;;
19084;SDS011;9675;51.538;6.728;2023-04-25T08:39:40;1.00;;;0.63;;
19084;SDS011;9675;51.538;6.728;2023-04-25T08:42:07;0.77;;;0.37;;
19084;SDS011;9675;51.538;6.728;2023-04-25T08:44:35;1.23;;;0.50;;
19084;SDS011;9675;51.538;6.728;2023-04-25T08:47:03;0.70;;;0.30;;
19084;SDS011;9675;51.538;6.728;2023-04-25T08:49:33;0.63;;;0.40;;
19084;SDS011;9675;51.538;6.728;2023-04-25T08:52:02;6.90;;;1.00;;
19084;SDS011;9675;51.538;6.728;2023-04-25T08:54:31;1.70;;;1.23;;
19084;SDS011;9675;51.538;6.728;2023-04-25T08:57:00;1.80;;;0.80;;
19084;SDS011;9675;51.538;6.728;2023-04-25T08:59:29;2.10;;;0.10;;
19084;SDS011;9675;51.538;6.728;2023-04-25T09:01:57;4.63;;;0.70;;
19084;SDS011;9675;51.538;6.728;2023-04-25T09:04:24;1.70;;;0.53;;
19084;SDS011;9675;51.538;6.728;2023-04-25T09:06:52;0.47;;;0.30;;
19084;SDS011;9675;51.538;6.728;2023-04-25T09:09:19;0.23;;;0.13;;
19084;SDS011;9675;51.538;6.728;2023-04-25T09:11:46;3.50;;;0.67;;
19084;SDS011;9675;51.538;6.728;2023-04-25T09:14:15;1.33;;;0.70;;
19084;SDS011;9675;51.538;6.728;2023-04-25T09:16:58;1.40;;;0.60;;
19084;SDS011;9675;51.538;6.728;2023-04-25T09:19:28;1.90;;;0.70;;
19084;SDS011;9675;51.538;6.728;2023-04-25T09:21:58;2.40;;;0.73;;
19084;SDS011;9675;51.538;6.728;2023-04-25T09:24:31;1.07;;;0.50;;
19084;SDS011;9675;51.538;6.728;2023-04-25T09:27:02;2.73;;;0.90;;
19084;SDS011;9675;51.538;6.728;2023-04-25T09:29:31;1.77;;;0.80;;
19084;SDS011;9675;51.538;6.728;2023-04-25T09:32:18;2.93;;;0.50;;
19084;SDS011;9675;51.538;6.728;2023-04-25T09:34:47;0.40;;;0.20;;
19084;SDS011;9675;51.538;6.728;2023-04-25T09:37:19;0.17;;;0.10;;
19084;SDS011;9675;51.538;6.728;2023-04-25T09:39:47;3.93;;;0.80;;
19084;SDS011;9675;51.538;6.728;2023-04-25T09:42:15;0.00;;;0.00;;
19084;SDS011;9675;51.538;6.728;2023-04-25T09:44:44;0.77;;;0.70;;
19084;SDS011;9675;51.538;6.728;2023-04-25T09:47:13;2.43;;;0.73;;
19084;SDS011;9675;51.538;6.728;2023-04-25T09:49:43;16.73;;;0.50;;
19084;SDS011;9675;51.538;6.728;2023-04-25T09:52:13;4.53;;;0.83;;
19084;SDS011;9675;51.538;6.728;2023-04-25T09:54:44;3.10;;;1.03;;
19084;SDS011;9675;51.538;6.728;2023-04-25T09:57:12;2.03;;;0.57;;
19084;SDS011;9675;51.538;6.728;2023-04-25T09:59:45;0.67;;;0.57;;
19084;SDS011;9675;51.538;6.728;2023-04-25T10:02:14;0.43;;;0.27;;
19084;SDS011;9675;51.538;6.728;2023-04-25T10:04:44;3.73;;;0.30;;
19084;SDS011;9675;51.538;6.728;2023-04-25T10:07:17;0.97;;;0.70;;
19084;SDS011;9675;51.538;6.728;2023-04-25T10:09:47;2.13;;;0.10;;
19084;SDS011;9675;51.538;6.728;2023-04-25T10:12:16;0.10;;;0.10;;
19084;SDS011;9675;51.538;6.728;2023-04-25T10:14:43;4.63;;;1.07;;
19084;SDS011;9675;51.538;6.728;2023-04-25T10:17:12;0.83;;;0.30;;
19084;SDS011;9675;51.538;6.728;2023-04-25T10:19:40;5.27;;;1.40;;
19084;SDS011;9675;51.538;6.728;2023-04-25T10:22:08;1.80;;;0.63;;
19084;SDS011;9675;51.538;6.728;2023-04-25T10:24:43;0.00;;;0.00;;
19084;SDS011;9675;51.538;6.728;2023-04-25T10:27:13;2.03;;;0.10;;
19084;SDS011;9675;51.538;6.728;2023-04-25T10:29:41;0.30;;;0.30;;
19084;SDS011;9675;51.538;6.728;2023-04-25T10:32:09;0.03;;;0.03;;
19084;SDS011;9675;51.538;6.728;2023-04-25T10:34:39;0.10;;;0.10;;
19084;SDS011;9675;51.538;6.728;2023-04-25T10:37:09;0.27;;;0.27;;
19084;SDS011;9675;51.538;6.728;2023-04-25T10:39:38;18.83;;;0.23;;
19084;SDS011;9675;51.538;6.728;2023-04-25T10:42:07;0.53;;;0.50;;
19084;SDS011;9675;51.538;6.728;2023-04-25T10:44:36;0.00;;;0.00;;
19084;SDS011;9675;51.538;6.728;2023-04-25T10:47:06;0.57;;;0.23;;
19084;SDS011;9675;51.538;6.728;2023-04-25T10:49:36;1.43;;;0.60;;
19084;SDS011;9675;51.538;6.728;2023-04-25T10:52:10;1.13;;;0.60;;
19084;SDS011;9675;51.538;6.728;2023-04-25T10:54:45;5.10;;;0.90;;
19084;SDS011;9675;51.538;6.728;2023-04-25T11:00:08;0.67;;;0.50;;
19084;SDS011;9675;51.538;6.728;2023-04-25T11:02:43;2.33;;;0.30;;
19084;SDS011;9675;51.538;6.728;2023-04-25T11:05:22;1.33;;;0.30;;
19084;SDS011;9675;51.538;6.728;2023-04-25T11:07:57;0.80;;;0.33;;
19084;SDS011;9675;51.538;6.728;2023-04-25T11:10:25;0.70;;;0.47;;
19084;SDS011;9675;51.538;6.728;2023-04-25T11:12:54;0.30;;;0.30;;
19084;SDS011;9675;51.538;6.728;2023-04-25T11:15:22;1.23;;;0.43;;
19084;SDS011;9675;51.538;6.728;2023-04-25T11:17:51;0.37;;;0.10;;
19084;SDS011;9675;51.538;6.728;2023-04-25T11:20:18;0.30;;;0.30;;
19084;SDS011;9675;51.538;6.728;2023-04-25T11:22:46;0.93;;;0.50;;
19084;SDS011;9675;51.538;6.728;2023-04-25T11:25:14;3.23;;;0.97;;
19084;SDS011;9675;51.538;6.728;2023-04-25T11:27:51;0.40;;;0.40;;
19084;SDS011;9675;51.538;6.728;2023-04-25T11:30:19;0.80;;;0.30;;
19084;SDS011;9675;51.538;6.728;2023-04-25T11:32:50;1.80;;;0.57;;
19084;SDS011;9675;51.538;6.728;2023-04-25T11:35:17;2.87;;;0.77;;
19084;SDS011;9675;51.538;6.728;2023-04-25T11:37:45;2.50;;;1.23;;
19084;SDS011;9675;51.538;6.728;2023-04-25T11:40:12;0.37;;;0.30;;
19084;SDS011;9675;51.538;6.728;2023-04-25T11:42:43;0.83;;;0.40;;
19084;SDS011;9675;51.538;6.728;2023-04-25T11:45:13;6.53;;;2.03;;
19084;SDS011;9675;51.538;6.728;2023-04-25T11:47:42;5.53;;;2.67;;
19084;SDS011;9675;51.538;6.728;2023-04-25T11:50:09;1.60;;;0.87;;
19084;SDS011;9675;51.538;6.728;2023-04-25T11:52:37;1.17;;;0.60;;
19084;SDS011;9675;51.538;6.728;2023-04-25T11:55:06;0.70;;;0.60;;
19084;SDS011;9675;51.538;6.728;2023-04-25T11:57:35;7.20;;;0.60;;
19084;SDS011;9675;51.538;6.728;2023-04-25T12:00:08;1.07;;;0.70;;
19084;SDS011;9675;51.538;6.728;2023-04-25T12:02:40;6.53;;;1.73;;
19084;SDS011;9675;51.538;6.728;2023-04-25T12:05:14;0.43;;;0.43;;
19084;SDS011;9675;51.538;6.728;2023-04-25T12:07:41;0.10;;;0.10;;
19084;SDS011;9675;51.538;6.728;2023-04-25T12:10:10;0.27;;;0.27;;
19084;SDS011;9675;51.538;6.728;2023-04-25T12:12:41;4.93;;;1.57;;
19084;SDS011;9675;51.538;6.728;2023-04-25T12:15:10;4.37;;;0.80;;
19084;SDS011;9675;51.538;6.728;2023-04-25T12:17:40;2.40;;;0.40;;
19084;SDS011;9675;51.538;6.728;2023-04-25T12:20:12;0.53;;;0.50;;
19084;SDS011;9675;51.538;6.728;2023-04-25T12:22:41;2.07;;;0.40;;
19084;SDS011;9675;51.538;6.728;2023-04-25T12:25:11;2.73;;;0.47;;
19084;SDS011;9675;51.538;6.728;2023-04-25T12:27:39;2.13;;;0.50;;
19084;SDS011;9675;51.538;6.728;2023-04-25T12:30:07;3.67;;;0.80;;
19084;SDS011;9675;51.538;6.728;2023-04-25T12:32:36;1.07;;;0.30;;
19084;SDS011;9675;51.538;6.728;2023-04-25T12:35:06;2.83;;;0.60;;
19084;SDS011;9675;51.538;6.728;2023-04-25T12:37:33;0.83;;;0.40;;
19084;SDS011;9675;51.538;6.728;2023-04-25T12:40:01;0.10;;;0.10;;
19084;SDS011;9675;51.538;6.728;2023-04-25T12:42:29;3.00;;;0.80;;
19084;SDS011;9675;51.538;6.728;2023-04-25T12:44:56;0.20;;;0.13;;
19084;SDS011;9675;51.538;6.728;2023-04-25T12:47:23;0.00;;;0.00;;
19084;SDS011;9675;51.538;6.728;2023-04-25T12:49:50;1.70;;;0.30;;
19084;SDS011;9675;51.538;6.728;2023-04-25T12:52:18;1.13;;;0.30;;
19084;SDS011;9675;51.538;6.728;2023-04-25T12:54:45;0.27;;;0.10;;
19084;SDS011;9675;51.538;6.728;2023-04-25T12:57:12;4.17;;;0.43;;
19084;SDS011;9675;51.538;6.728;2023-04-25T12:59:40;5.67;;;0.37;;
19084;SDS011;9675;51.538;6.728;2023-04-25T13:02:06;3.97;;;0.67;;
19084;SDS011;9675;51.538;6.728;2023-04-25T13:04:34;1.30;;;0.50;;
19084;SDS011;9675;51.538;6.728;2023-04-25T13:07:01;0.20;;;0.20;;
19084;SDS011;9675;51.538;6.728;2023-04-25T13:09:29;0.00;;;0.00;;
19084;SDS011;9675;51.538;6.728;2023-04-25T13:11:56;2.87;;;0.87;;
19084;SDS011;9675;51.538;6.728;2023-04-25T13:14:23;1.93;;;1.13;;
19084;SDS011;9675;51.538;6.728;2023-04-25T13:16:51;0.80;;;0.20;;
19084;SDS011;9675;51.538;6.728;2023-04-25T13:19:19;0.53;;;0.20;;
19084;SDS011;9675;51.538;6.728;2023-04-25T13:21:46;0.87;;;0.30;;
19084;SDS011;9675;51.538;6.728;2023-04-25T13:24:13;2.60;;;0.40;;
19084;SDS011;9675;51.538;6.728;2023-04-25T13:26:42;4.23;;;0.50;;
19084;SDS011;9675;51.538;6.728;2023-04-25T13:29:09;0.30;;;0.20;;
19084;SDS011;9675;51.538;6.728;2023-04-25T13:31:36;0.50;;;0.40;;
19084;SDS011;9675;51.538;6.728;2023-04-25T13:34:03;1.03;;;0.27;;
19084;SDS011;9675;51.538;6.728;2023-04-25T13:36:30;0.07;;;0.07;;
19084;SDS011;9675;51.538;6.728;2023-04-25T13:38:57;0.83;;;0.27;;
19084;SDS011;9675;51.538;6.728;2023-04-25T13:41:28;1.43;;;0.13;;
19084;SDS011;9675;51.538;6.728;2023-04-25T13:43:56;0.37;;;0.17;;
19084;SDS011;9675;51.538;6.728;2023-04-25T13:46:23;1.77;;;0.40;;
19084;SDS011;9675;51.538;6.728;2023-04-25T13:48:50;1.43;;;0.30;;
19084;SDS011;9675;51.538;6.728;2023-04-25T13:51:17;0.27;;;0.10;;
19084;SDS011;9675;51.538;6.728;2023-04-25T13:53:45;0.00;;;0.00;;
19084;SDS011;9675;51.538;6.728;2023-04-25T13:56:12;0.10;;;0.10;;
19084;SDS011;9675;51.538;6.728;2023-04-25T13:58:39;0.30;;;0.10;;
19084;SDS011;9675;51.538;6.728;2023-04-25T14:01:08;1.60;;;0.57;;
19084;SDS011;9675;51.538;6.728;2023-04-25T14:03:35;0.10;;;0.10;;
19084;SDS011;9675;51.538;6.728;2023-04-25T14:06:02;0.17;;;0.17;;
19084;SDS011;9675;51.538;6.728;2023-04-25T14:08:29;0.43;;;0.23;;
19084;SDS011;9675;51.538;6.728;2023-04-25T14:10:57;0.60;;;0.33;;
19084;SDS011;9675;51.538;6.728;2023-04-25T14:13:23;0.20;;;0.20;;
19084;SDS011;9675;51.538;6.728;2023-04-25T14:15:50;0.97;;;0.57;;
19084;SDS011;9675;51.538;6.728;2023-04-25T14:18:19;1.20;;;0.33;;
19084;SDS011;9675;51.538;6.728;2023-04-25T14:20:46;1.93;;;0.50;;
19084;SDS011;9675;51.538;6.728;2023-04-25T14:23:14;1.90;;;0.83;;
19084;SDS011;9675;51.538;6.728;2023-04-25T14:25:42;0.60;;;0.27;;
19084;SDS011;9675;51.538;6.728;2023-04-25T14:28:10;0.93;;;0.30;;
19084;SDS011;9675;51.538;6.728;2023-04-25T14:30:37;0.47;;;0.33;;
19084;SDS011;9675;51.538;6.728;2023-04-25T14:33:03;9.53;;;1.13;;
19084;SDS011;9675;51.538;6.728;2023-04-25T14:35:32;3.50;;;0.63;;
19084;SDS011;9675;51.538;6.728;2023-04-25T14:37:59;0.83;;;0.43;;
19084;SDS011;9675;51.538;6.728;2023-04-25T14:40:26;25.03;;;0.73;;
19084;SDS011;9675;51.538;6.728;2023-04-25T14:42:53;3.10;;;0.73;;
19084;SDS011;9675;51.538;6.728;2023-04-25T14:45:21;0.10;;;0.10;;
19084;SDS011;9675;51.538;6.728;2023-04-25T14:47:48;0.27;;;0.10;;
19084;SDS011;9675;51.538;6.728;2023-04-25T14:50:15;0.07;;;0.07;;
19084;SDS011;9675;51.538;6.728;2023-04-25T14:52:43;4.13;;;0.67;;
19084;SDS011;9675;51.538;6.728;2023-04-25T14:55:10;0.17;;;0.17;;
19084;SDS011;9675;51.538;6.728;2023-04-25T14:57:38;0.00;;;0.00;;
19084;SDS011;9675;51.538;6.728;2023-04-25T15:00:05;2.27;;;0.37;;
19084;SDS011;9675;51.538;6.728;2023-04-25T15:02:34;0.40;;;0.40;;
19084;SDS011;9675;51.538;6.728;2023-04-25T15:05:02;1.80;;;0.30;;
19084;SDS011;9675;51.538;6.728;2023-04-25T15:07:29;0.67;;;0.10;;